• Join FlightAware (Why Join?)
  • Login
  • US Flag 
01:55PM EDT


 

Airport Tracker/Info


-or-


 

Live Flight TrackerFlight Track Log ✈ DAL3784 ✈ 10-Apr-2013 ✈ KATW - KDTW

Flight Track Log - Related Links

Times and Time Zones

All times are in EDT time to prevent confusion due to time zone crossing. See the DAL3784 flight status page for this flight to view local times or setup timezone preferences in your user account.

Time Position Orientation Groundspeed Altitude Reporting Facility
EDT Latitude Longitude Course Direction KTS MPH feet Rate Location/Type
06:01PM 44.2236 -88.2778 102° East 256 295 8,000  Level Minneapolis Center
06:02PM 44.2053 -88.1647 103° East 285 328 9,900 1,380 Climbing Minneapolis Center
06:03PM 44.1853 -88.0392 102° East 312 359 10,900 1,380 Climbing Minneapolis Center
06:04PM 44.1608 -87.8933 103° East 366 421 12,800 1,800 Climbing Minneapolis Center
06:05PM 44.1382 -87.7672 101° East  Level FlightAware Approximate
06:05PM 44.1394 -87.7503 102° East 375 432 14,600  Level Minneapolis Center
06:06PM 44.1017 -87.6147 111° Southeast 377 434 15,900 1,200 Climbing Minneapolis Center
06:07PM 44.0456 -87.4869 121° Southeast 384 442 17,100 900 Climbing Minneapolis Center
06:08PM 43.9800 -87.3339 121° Southeast 390 449 17,800 -180 Climbing Minneapolis Center
06:10PM 43.9303 -87.2228 122° Southeast 401 461 16,800 -1,800 Descending Minneapolis Center
06:11PM 43.8581 -87.0525 120° Southeast 421 484 14,200 -2,520 Descending Minneapolis Center
06:12PM 43.8008 -86.9225 121° Southeast 402 463 11,700 -1,620 Descending Minneapolis Center
06:13PM 43.7450 -86.7986 122° Southeast 385 443 11,000 -360 Descending Minneapolis Center
06:14PM 43.6883 -86.6694 121° Southeast 392 451 11,000  Level Minneapolis Center
06:15PM 43.6306 -86.5358 121° Southeast 402 463 11,000  Level Minneapolis Center
06:16PM 43.5725 -86.4022 121° Southeast 405 466 11,000 -60 Level Minneapolis Center
06:17PM 43.5133 -86.2694 122° Southeast 407 468 10,900 -60 Descending Chicago Center
06:18PM 43.4558 -86.1375 121° Southeast 402 463 10,900  Level Chicago Center
06:19PM 43.4122 -85.9581 108° East 408 470 10,900 60 Level Chicago Center
06:20PM 43.3753 -85.8092 109° East 407 468 11,100 60 Climbing Minneapolis Center
06:21PM 43.3369 -85.6578 109° East 414 476 11,100  Level Chicago Center
06:22PM 43.2989 -85.5047 109° East 420 483 11,100  Level Chicago Center
06:23PM 43.2656 -85.3708 109° East 425 489 11,100  Level Cleveland Center
06:24PM 43.2258 -85.2194 110° East 420 483 11,100  Level Cleveland Center
06:25PM 43.1858 -85.0683 110° East 420 483 11,100  Level Cleveland Center
06:26PM 43.1478 -84.9175 109° East 415 478 11,100  Level Cleveland Center
06:27PM 43.1097 -84.7639 109° East 415 478 11,100  Level Cleveland Center
06:27PM 43.1056 -84.7417 104° East 425 489 11,100  Level Chicago Center
06:28PM 43.0578 -84.5581 110° East 426 490 11,100  Level Chicago Center
06:29PM 43.0169 -84.4056 110° East 428 493 11,100  Level Chicago Center
06:30PM 42.9953 -84.3361 113° Southeast 415 478 11,100 -120 Level Cleveland Center
06:30PM 42.9617 -84.2119 110° East 433 498 11,000  Descending Cleveland Center
06:31PM 42.9506 -84.1689 109° East 420 483 11,100  Climbing Cleveland Center
06:31PM 42.9283 -84.0794 109° East 436 502 11,000 -120 Descending Cleveland Center
06:32PM 42.9072 -84.0131 113° Southeast 420 483 11,000  Level Cleveland Center
06:32PM 42.8886 -83.9356 108° East 436 502 11,000  Level Cleveland Center
06:33PM 42.8658 -83.8581 112° Southeast 426 490 11,000  Level Cleveland Center
06:33PM 42.8414 -83.7717 111° Southeast 436 502 11,000  Level Cleveland Center
06:34PM 42.8050 -83.7217 135° Southeast 426 490 11,000  Level Cleveland Center
06:34PM 42.7619 -83.6969 157° South 406 467 11,000  Level Cleveland Center
06:35PM 42.7047 -83.6603 155° Southeast 386 444 11,000  Level Cleveland Center
06:35PM 42.6594 -83.6353 158° South 397 457 11,000  Level Cleveland Center
06:36PM 42.6019 -83.5986 155° Southeast 386 444 11,000  Level Cleveland Center
06:36PM 42.5589 -83.5711 155° Southeast 399 459 11,000  Level Cleveland Center
06:37PM 42.4994 -83.5375 157° South 397 457 11,000 -120 Level Cleveland Center
06:37PM 42.4539 -83.5242 168° South 372 428 10,900  Descending Cleveland Center
06:38PM 42.4125 -83.5081 164° South 377 434 11,000 -60 Climbing Cleveland Center
06:39PM 42.2886 -83.4631 165° South 263 303 10,800 -420 Descending Cleveland Center
06:40PM 42.2572 -83.4644 182° South 258 297 10,200 -1,320 Descending Cleveland Center
06:40PM 42.2319 -83.4772 201° Southwest 202 232 9,500 -1,140 Descending Cleveland Center
06:41PM 42.1833 -83.5058 204° Southwest 206 237 8,600 -780 Descending Cleveland Center
06:42PM 42.1239 -83.5425 205° Southwest 200 230 8,000 -300 Descending Cleveland Center
06:43PM 42.0897 -83.5828 221° Southwest 172 198 8,000 -420 Level Cleveland Center
06:44PM 42.0511 -83.6200 216° Southwest 169 194 7,200 -1,020 Descending Cleveland Center
06:45PM 42.0078 -83.6042 165° South 245 282 6,000 -960 Descending Cleveland Center
06:46PM 42.0203 -83.5208 79° East 221 254 5,300 -720 Descending Cleveland Center